Nearby METAR Reports

 

PAEN - Kenai, Alaska, USA
Distance from station: ESE 2mi, 4km
Updated: Sun, 29-May-2022 3:53am AKDT
Clear
Clear
 Wind from S
Wind: S 5 mph , 7 km/h
Temperature: 52°F , 11°C
Dew Point: 36°F , 2°C
Humidity: 54%
Barometer: 29.94 inHg , 1013.9 hPa
Clouds: Clear
Visibility: 10 miles , 16 km
2022/05/29 11:53 PAEN 291153Z AUTO 19004KT 10SM CLR 11/02 A2994 RMK AO2 SLP139 T01060017 10156 20083 53008 TSNO
PASX - Soldotna, Alaska, USA
Distance from station: SE 12mi, 19km
Updated: Sun, 29-May-2022 3:56am AKDT
Clear
Clear
 Wind from ENE
Wind: ENE 5 mph , 7 km/h
Temperature: 45°F , 7°C
Wind Chill: 42°F , 6°C
Dew Point: 34°F , 1°C
Humidity: 66%
Barometer: 29.96 inHg , 1014.6 hPa
Clouds: Clear
Visibility: 10 miles , 16 km
2022/05/29 11:56 PASX 291156Z AUTO 06004KT 10SM CLR 07/01 A2996 RMK AO2 SLP155 T00670011 10183 20050 53007
 
PANC - Anchorage Intl, Alaska, USA
Distance from station: NE 59mi, 96km
Updated: Sun, 29-May-2022 3:53am AKDT
Clear
Clear
 Wind from S
Wind: S 7 mph , 11 km/h
Temperature: 57°F , 14°C
Dew Point: 36°F , 2°C
Humidity: 44%
Barometer: 29.92 inHg , 1013.2 hPa
Clouds: Clear
Visibility: 10 miles , 16 km
2022/05/29 11:53 PANC 291153Z 17006KT 10SM CLR 14/02 A2992 RMK AO2 SLP133 T01390017 10183 20133 53010 $
PALH - Anchorage/Lake H, Alaska, USA
Distance from station: NE 61mi, 99km
Updated: Sun, 29-May-2022 3:53am AKDT
Clear
Clear
 Wind from S
Wind: S 6 mph , 9 km/h
Temperature: 55°F , 13°C
Dew Point: 37°F , 3°C
Humidity: 51%
Barometer: 29.93 inHg , 1013.5 hPa
Clouds: Clear
Visibility: 10 miles , 16 km
2022/05/29 11:53 PALH 291153Z AUTO 18005KT 10SM CLR 13/03 A2993 RMK AO2 SLP136 T01330028 10189 20128 53010 TSNO
 
PAHO - Homer, Alaska, USA
Distance from station: S 66mi, 106km
Updated: Sun, 29-May-2022 3:53am AKDT
Clear
Clear
 Wind from NE
Wind: NE 5 mph , 7 km/h
Temperature: 43°F , 6°C
Wind Chill: 40°F , 4°C
Dew Point: 36°F , 2°C
Humidity: 76%
Barometer: 29.96 inHg , 1014.6 hPa
Clouds: Clear
Visibility: 10 miles , 16 km
2022/05/29 11:53 PAHO 291153Z AUTO 05004KT 10SM CLR 06/02 A2996 RMK AO2 SLP146 T00560022 10139 20056 53005 TSNO
PAMR - Anchorage/Merril, Alaska, USA
Distance from station: NE 66mi, 106km
Updated: Sun, 29-May-2022 3:53am AKDT
Clear
Clear
 Wind from E
Wind: E 5 mph , 7 km/h
Temperature: 54°F , 12°C
Dew Point: 36°F , 2°C
Humidity: 51%
Barometer: 29.93 inHg , 1013.5 hPa
Clouds: Clear
Visibility: 10 miles , 16 km
2022/05/29 11:53 PAMR 291153Z 09004KT 10SM CLR 12/02 A2993 RMK AO2 SLP134 T01170017 10172 20100 51011
 
PAED - Elmendorf Afb, Alaska, USA
Distance from station: NE 69mi, 110km
Updated: Sun, 29-May-2022 3:56am AKDT
Clear
Clear
 Wind from calm
Wind: Calm
Temperature: 54°F , 12°C
Dew Point: 36°F , 2°C
Humidity: 51%
Barometer: 29.91 inHg , 1012.9 hPa
Clouds: Clear
Visibility: 10 miles , 16 km
2022/05/29 11:56 PAED 291156Z 00000KT 10SM CLR 12/02 A2991 RMK AO2A SLP124 T01210020 10157 20116 52010 $
PAWD - Seward, Alaska, USA
Distance from station: ESE 71mi, 115km
Updated: Sun, 29-May-2022 3:53am AKDT
Clear
Clear
 Wind from NW
Wind: NW 3 mph , 6 km/h
Temperature: 41°F , 5°C
Dew Point: 36°F , 2°C
Humidity: 81%
Barometer: 29.96 inHg , 1014.6 hPa
Clouds: Clear
Visibility: 10 miles , 16 km
2022/05/29 11:53 PAWD 291153Z AUTO 32003KT 10SM CLR 05/02 A2996 RMK AO2 SLP146 T00500017 10133 20050 51007 TSNO $
 
PASC - Deadhorse, Alaska, USA
Distance from station: ENE 670mi, 1078km
Updated: Sun, 29-May-2022 4:23am AKDT
Light rain, Mist, Overcast
Light rain, Mist, Overcast
 Wind from calm
Wind: Calm
Temperature: 32°F , 0°C
Dew Point: 30°F , -1°C
Humidity: 93%
Barometer: 30.04 inHg , 1017.3 hPa
Summary: Light rain, Mist
Clouds: Overcast
Visibility: 3/4 mile , 1.2 km
Cloud details: Overcast 500 ft
2022/05/29 12:23 PASC 291223Z 00000KT 3/4SM R06/4500V5000FT -RA BR OVC005 00/M01 A3004 RMK AO2 SNE1154 CIG 003V007 P0000 T00001011
PAAD - Point Thomson, Alaska, USA
Distance from station: ENE 680mi, 1094km
Updated: Sun, 29-May-2022 4:15am AKDT
Light snow, Overcast
Light snow, Overcast
 Wind from W
Wind: W 6 mph , 9 km/h
Temperature: 30°F , -1°C
Wind Chill: 24°F , -4°C
Dew Point: 30°F , -1°C
Humidity: 100%
Barometer: 30.04 inHg , 1017.3 hPa
Summary: Light Snow
Clouds: Overcast
Visibility: 2 1/2 miles , 4 km
Cloud details: Partly cloudy 1500 ft
Overcast 2300 ft
2022/05/29 12:15 PAAD 291215Z AUTO 28005KT 2 1/2SM -SN SCT015 OVC023 M01/M01 A3004 RMK AO2 T10131015


kenaipeople.com website

Dans Automotive

Lower Peninsula Power Sports

Freddies RoadHouse

Alaska Weather Net